createdAt,value
2018-03-28T00:00:34.824Z,31.47
2018-03-28T00:03:06.416Z,36.90
2018-03-28T00:05:41.626Z,29.27
2018-03-28T00:08:13.762Z,26.10
2018-03-28T00:10:45.029Z,29.17
2018-03-28T00:13:15.666Z,31.00
2018-03-28T00:15:48.153Z,31.80
2018-03-28T00:18:19.629Z,29.47
2018-03-28T00:20:53.364Z,31.43
2018-03-28T00:23:27.440Z,39.50
2018-03-28T00:26:01.898Z,33.13
2018-03-28T00:28:33.065Z,32.63
2018-03-28T00:31:04.703Z,30.50
2018-03-28T00:33:40.446Z,24.67
2018-03-28T00:36:16.867Z,32.60
2018-03-28T00:38:47.862Z,30.85
2018-03-28T00:41:19.039Z,32.80
2018-03-28T00:43:49.882Z,28.53
2018-03-28T00:46:23.027Z,31.30
2018-03-28T00:49:43.937Z,33.20
2018-03-28T00:52:15.372Z,31.57
2018-03-28T00:54:45.952Z,34.97
2018-03-28T00:57:19.163Z,29.83
2018-03-28T00:59:57.481Z,30.90
2018-03-28T01:02:31.152Z,30.47
2018-03-28T01:05:01.321Z,29.67
2018-03-28T01:07:36.660Z,29.97
2018-03-28T01:10:18.803Z,32.47
2018-03-28T01:12:51.413Z,29.47
2018-03-28T01:15:21.532Z,32.43
2018-03-28T01:17:53.844Z,33.53
2018-03-28T01:20:25.161Z,31.16
2018-03-28T01:22:55.729Z,34.70
2018-03-28T01:25:27.614Z,31.63
2018-03-28T01:27:59.063Z,33.00
2018-03-28T01:30:31.034Z,33.20
2018-03-28T01:33:05.855Z,37.40
2018-03-28T01:35:38.093Z,34.37
2018-03-28T01:38:11.768Z,32.73
2018-03-28T01:40:48.228Z,34.50
2018-03-28T01:43:19.730Z,34.03
2018-03-28T01:45:50.232Z,34.67
2018-03-28T01:48:24.067Z,31.67
2018-03-28T01:50:58.207Z,33.80
2018-03-28T01:53:30.331Z,32.53
2018-03-28T01:56:01.811Z,27.50
2018-03-28T01:58:35.738Z,29.67
2018-03-28T02:01:06.238Z,29.67
2018-03-28T02:03:38.450Z,32.00
2018-03-28T02:06:08.729Z,29.93
2018-03-28T02:08:40.215Z,32.43
2018-03-28T02:11:12.550Z,35.30
2018-03-28T02:13:47.376Z,32.67
2018-03-28T02:16:22.553Z,30.10
2018-03-28T02:18:53.102Z,31.53
2018-03-28T02:21:24.854Z,30.57
2018-03-28T02:23:56.344Z,29.15
2018-03-28T02:26:27.935Z,30.98
2018-03-28T02:28:59.658Z,34.67
2018-03-28T02:31:31.260Z,32.30
2018-03-28T02:34:03.742Z,35.63
2018-03-28T02:36:35.324Z,38.95
2018-03-28T02:39:07.077Z,39.00
2018-03-28T02:41:39.736Z,37.37
2018-03-28T02:44:40.763Z,36.93
2018-03-28T02:47:12.376Z,29.97
2018-03-28T02:49:43.185Z,32.03
2018-03-28T02:52:15.861Z,30.23
2018-03-28T02:54:49.017Z,31.20
2018-03-28T02:57:19.493Z,29.23
2018-03-28T02:59:50.366Z,29.97
2018-03-28T03:02:28.475Z,30.90
2018-03-28T03:05:00.087Z,28.60
2018-03-28T03:07:50.670Z,28.33
2018-03-28T03:10:21.329Z,30.77
2018-03-28T03:12:53.329Z,31.83
2018-03-28T03:15:25.763Z,26.48
2018-03-28T03:17:59.677Z,25.90
2018-03-28T03:20:30.171Z,31.47
2018-03-28T03:23:05.507Z,32.73
2018-03-28T03:25:38.079Z,27.53
2018-03-28T03:28:09.206Z,28.33
2018-03-28T03:30:39.766Z,29.64
2018-03-28T03:33:11.295Z,27.13
2018-03-28T03:35:43.422Z,27.27
2018-03-28T03:38:16.423Z,29.13
2018-03-28T03:40:47.868Z,29.30
2018-03-28T03:43:20.957Z,29.27
2018-03-28T03:45:53.373Z,25.60
2018-03-28T03:48:25.953Z,29.87
2018-03-28T03:51:04.500Z,27.60
2018-03-28T03:53:36.678Z,27.00
2018-03-28T03:56:11.676Z,29.25
2018-03-28T03:58:42.723Z,29.87
2018-03-28T04:01:13.999Z,31.45
2018-03-28T04:03:47.493Z,32.63
2018-03-28T04:06:19.810Z,28.90
2018-03-28T04:08:51.199Z,28.90
2018-03-28T04:11:23.052Z,32.93
2018-03-28T04:13:56.229Z,33.88
2018-03-28T04:19:28.889Z,30.27
2018-03-28T04:22:05.431Z,32.20
2018-03-28T04:24:42.548Z,31.50
2018-03-28T04:27:14.885Z,28.67
2018-03-28T04:29:48.234Z,28.03
2018-03-28T04:32:22.598Z,26.27
2018-03-28T04:34:53.592Z,26.13
2018-03-28T04:37:25.016Z,29.85
2018-03-28T04:39:57.235Z,29.93
2018-03-28T04:45:22.100Z,29.03
2018-03-28T04:47:53.265Z,30.33
2018-03-28T04:50:26.004Z,24.73
2018-03-28T04:52:57.410Z,30.57
2018-03-28T04:55:30.635Z,32.47
2018-03-28T04:58:04.297Z,27.73
2018-03-28T05:00:36.809Z,30.25
2018-03-28T05:03:08.458Z,31.55
2018-03-28T05:05:44.404Z,33.03
2018-03-28T05:08:15.631Z,25.37
2018-03-28T05:10:49.917Z,28.80
2018-03-28T05:13:22.688Z,25.57
2018-03-28T05:15:54.880Z,27.20
2018-03-28T05:18:27.401Z,28.73
2018-03-28T05:21:00.885Z,26.93
2018-03-28T05:23:34.952Z,30.48
2018-03-28T05:26:07.263Z,30.30
2018-03-28T05:28:40.558Z,26.87
2018-03-28T05:31:14.040Z,30.30
2018-03-28T05:33:47.545Z,26.30
2018-03-28T05:36:20.573Z,27.07
2018-03-28T05:38:52.336Z,32.47
2018-03-28T05:41:23.845Z,30.53
2018-03-28T05:43:57.308Z,30.43
2018-03-28T05:46:32.402Z,27.27
2018-03-28T05:49:07.163Z,28.17
2018-03-28T05:51:38.787Z,28.87
2018-03-28T05:54:11.443Z,29.07
2018-03-28T05:56:42.820Z,32.67
2018-03-28T05:59:16.656Z,31.77
2018-03-28T06:01:49.795Z,28.77
2018-03-28T06:04:21.293Z,29.33
2018-03-28T06:06:56.387Z,31.73
2018-03-28T06:09:30.290Z,29.33
2018-03-28T06:12:02.222Z,27.63
2018-03-28T06:14:35.684Z,30.73
2018-03-28T06:17:09.018Z,28.40
2018-03-28T06:19:39.766Z,26.23
2018-03-28T06:22:11.392Z,26.33
2018-03-28T06:24:44.813Z,28.90
2018-03-28T06:27:18.442Z,28.60
2018-03-28T06:29:51.166Z,25.35
2018-03-28T06:32:22.741Z,25.47
2018-03-28T06:34:53.127Z,32.47
2018-03-28T06:37:26.475Z,26.87
2018-03-28T06:40:00.934Z,27.30
2018-03-28T06:42:36.568Z,25.20
2018-03-28T06:45:07.141Z,27.67
2018-03-28T06:47:37.479Z,27.57
2018-03-28T06:50:08.238Z,23.07
2018-03-28T06:52:40.245Z,27.10
2018-03-28T06:55:11.924Z,24.73
2018-03-28T06:57:42.559Z,24.97
2018-03-28T07:00:14.261Z,25.63
2018-03-28T07:02:48.772Z,24.37
2018-03-28T07:05:22.320Z,24.73
2018-03-28T07:07:52.605Z,24.73
2018-03-28T07:10:27.816Z,27.63
2018-03-28T07:13:04.838Z,23.60
2018-03-28T07:15:40.995Z,21.90
2018-03-28T07:18:12.136Z,25.93
2018-03-28T07:20:42.541Z,21.13
2018-03-28T07:23:16.886Z,23.97
2018-03-28T07:25:47.488Z,25.70
2018-03-28T07:28:20.209Z,25.60
2018-03-28T07:30:54.597Z,25.27
2018-03-28T07:33:25.239Z,21.67
2018-03-28T07:35:55.763Z,20.80
2018-03-28T07:38:29.166Z,25.27
2018-03-28T07:41:00.896Z,24.00
2018-03-28T07:43:35.127Z,23.57
2018-03-28T07:46:06.599Z,23.45
2018-03-28T07:48:40.357Z,22.80
2018-03-28T07:51:12.708Z,24.37
2018-03-28T07:53:42.898Z,23.20
2018-03-28T07:56:15.623Z,21.40
2018-03-28T07:58:47.911Z,28.02
2018-03-28T08:01:19.474Z,26.17
2018-03-28T08:03:50.506Z,24.53
2018-03-28T08:06:23.881Z,21.23
2018-03-28T08:08:55.091Z,21.00
2018-03-28T08:11:54.570Z,23.37
2018-03-28T08:14:29.189Z,21.90
2018-03-28T08:20:12.578Z,20.57
2018-03-28T08:22:51.436Z,23.43
2018-03-28T08:25:22.628Z,26.37
2018-03-28T08:27:53.047Z,24.67
2018-03-28T08:30:23.201Z,22.73
2018-03-28T08:32:58.570Z,23.23
2018-03-28T08:35:41.389Z,22.83
2018-03-28T08:38:12.676Z,24.90
2018-03-28T08:40:43.845Z,20.63
2018-03-28T08:43:15.848Z,17.17
2018-03-28T08:45:47.039Z,18.23
2018-03-28T08:48:18.849Z,19.30
2018-03-28T08:50:50.608Z,19.85
2018-03-28T08:53:20.839Z,21.77
2018-03-28T08:55:51.690Z,20.90
2018-03-28T08:58:22.353Z,16.80
2018-03-28T09:00:52.655Z,23.63
2018-03-28T09:03:24.501Z,20.20
2018-03-28T09:05:57.020Z,21.07
2018-03-28T09:08:31.386Z,23.57
2018-03-28T09:11:02.716Z,18.75
2018-03-28T09:13:38.314Z,21.07
2018-03-28T09:16:11.106Z,24.30
2018-03-28T09:18:44.944Z,19.27
2018-03-28T09:21:19.271Z,23.60
2018-03-28T09:23:53.977Z,24.27
2018-03-28T09:26:25.689Z,22.23
2018-03-28T09:28:57.265Z,19.03
2018-03-28T09:31:29.484Z,21.77
2018-03-28T09:33:58.923Z,22.37
2018-03-28T09:36:28.291Z,23.83
2018-03-28T09:39:00.179Z,20.48
2018-03-28T09:41:33.799Z,23.42
2018-03-28T09:44:04.836Z,19.37
2018-03-28T09:46:34.459Z,22.53
2018-03-28T09:49:04.694Z,21.77
2018-03-28T09:51:34.133Z,21.03
2018-03-28T09:54:03.470Z,21.25
2018-03-28T09:56:32.802Z,22.90
2018-03-28T09:59:02.219Z,21.73
2018-03-28T10:01:31.750Z,23.80
2018-03-28T10:04:06.612Z,22.67
2018-03-28T10:06:36.013Z,26.73
2018-03-28T10:09:05.329Z,26.27
2018-03-28T10:11:36.911Z,22.77
2018-03-28T10:14:06.426Z,24.23
2018-03-28T10:16:35.851Z,26.50
2018-03-28T10:19:05.348Z,24.23
2018-03-28T10:21:34.877Z,28.80
2018-03-28T10:24:04.176Z,25.40
2018-03-28T10:26:33.503Z,28.90
2018-03-28T10:29:02.990Z,27.03
2018-03-28T10:31:32.391Z,32.33
2018-03-28T10:34:01.939Z,26.50
2018-03-28T10:36:31.995Z,29.20
2018-03-28T10:39:01.460Z,28.67
2018-03-28T10:41:31.620Z,25.30
2018-03-28T10:44:01.071Z,28.80
2018-03-28T10:46:30.936Z,26.33
2018-03-28T10:49:00.710Z,29.97
2018-03-28T10:51:30.033Z,25.83
2018-03-28T10:53:59.470Z,22.93
2018-03-28T10:56:29.484Z,27.60
2018-03-28T10:59:00.092Z,28.20
2018-03-28T11:01:29.418Z,26.83
2018-03-28T11:04:00.113Z,30.70
2018-03-28T11:06:29.469Z,25.90
2018-03-28T11:08:59.526Z,24.40
2018-03-28T11:11:29.563Z,27.90
2018-03-28T11:13:59.467Z,24.55
2018-03-28T11:16:30.416Z,24.35
2018-03-28T11:19:00.130Z,29.87
2018-03-28T11:21:30.336Z,22.98
2018-03-28T11:23:59.716Z,26.23
2018-03-28T11:26:29.679Z,27.43
2018-03-28T11:28:59.956Z,24.85
2018-03-28T11:31:30.949Z,26.92
2018-03-28T11:34:00.320Z,30.87
2018-03-28T11:36:30.903Z,27.32
2018-03-28T11:39:02.358Z,23.92
2018-03-28T11:41:32.506Z,25.02
2018-03-28T11:44:09.623Z,22.53
2018-03-28T11:46:40.157Z,22.97
2018-03-28T11:49:10.701Z,25.27
2018-03-28T11:51:42.901Z,28.33
2018-03-28T11:54:13.883Z,24.10
2018-03-28T11:56:44.077Z,24.10
2018-03-28T11:59:14.924Z,25.27
2018-03-28T12:01:44.817Z,20.53
2018-03-28T12:04:17.259Z,24.47
2018-03-28T12:06:48.155Z,21.93
2018-03-28T12:09:20.006Z,25.40
2018-03-28T12:11:51.832Z,24.00
2018-03-28T12:14:26.817Z,21.75
2018-03-28T12:16:57.616Z,19.53
2018-03-28T12:19:28.637Z,21.37
2018-03-28T12:21:59.679Z,21.67
2018-03-28T12:24:30.905Z,19.80
2018-03-28T12:27:07.374Z,27.03
2018-03-28T12:29:39.124Z,22.50
2018-03-28T12:32:12.373Z,21.37
2018-03-28T12:34:45.900Z,23.77
2018-03-28T12:37:18.902Z,17.80
2018-03-28T12:39:52.663Z,18.87
2018-03-28T12:42:23.367Z,18.90
2018-03-28T12:44:53.909Z,17.17
2018-03-28T12:47:24.803Z,19.67
2018-03-28T12:49:56.855Z,18.67
2018-03-28T12:52:27.358Z,21.75
2018-03-28T12:54:58.524Z,18.07
2018-03-28T12:57:28.720Z,16.90
2018-03-28T12:59:59.881Z,16.60
2018-03-28T13:02:30.397Z,15.53
2018-03-28T13:05:01.297Z,18.17
2018-03-28T13:07:33.780Z,17.52
2018-03-28T13:10:07.420Z,17.50
2018-03-28T13:12:38.618Z,16.12
2018-03-28T13:15:10.418Z,16.73
2018-03-28T13:17:39.841Z,15.90
2018-03-28T13:20:09.937Z,15.27
2018-03-28T13:22:40.020Z,15.23
2018-03-28T13:25:09.325Z,14.60
2018-03-28T13:27:38.879Z,15.98
2018-03-28T13:30:34.132Z,20.27
2018-03-28T13:33:03.689Z,17.90
2018-03-28T13:35:33.185Z,16.87
2018-03-28T13:38:05.582Z,17.93
2018-03-28T13:40:42.179Z,19.20
2018-03-28T13:43:16.224Z,23.98
2018-03-28T13:45:47.676Z,17.27
2018-03-28T13:48:19.715Z,20.77
2018-03-28T13:50:50.630Z,19.62
2018-03-28T13:53:23.759Z,24.37
2018-03-28T13:55:56.539Z,20.87
2018-03-28T13:58:27.680Z,20.83
2018-03-28T14:00:57.078Z,17.20
2018-03-28T14:03:26.385Z,18.60
2018-03-28T14:05:55.756Z,19.50
2018-03-28T14:08:25.093Z,18.02
2018-03-28T14:10:54.451Z,21.17
2018-03-28T14:13:23.874Z,25.92
2018-03-28T14:15:53.974Z,21.52
2018-03-28T14:18:23.515Z,18.47
2018-03-28T14:20:54.620Z,19.87
2018-03-28T14:23:24.704Z,21.05
2018-03-28T14:25:54.190Z,25.52
2018-03-28T14:28:23.550Z,19.83
2018-03-28T14:30:52.968Z,20.27
2018-03-28T14:33:22.337Z,21.42
2018-03-28T14:35:51.754Z,21.62
2018-03-28T14:38:21.175Z,20.33
2018-03-28T14:40:50.523Z,19.00
2018-03-28T14:43:20.194Z,20.60
2018-03-28T14:45:50.615Z,19.40
2018-03-28T14:48:19.946Z,19.87
2018-03-28T14:50:50.099Z,20.00
2018-03-28T14:53:19.522Z,17.37
2018-03-28T14:55:48.923Z,21.25
2018-03-28T14:58:19.167Z,20.37
2018-03-28T15:00:49.432Z,19.60
2018-03-28T15:03:18.799Z,19.70
2018-03-28T15:05:48.209Z,20.07
2018-03-28T15:08:17.547Z,20.77
2018-03-28T15:10:46.837Z,22.50
2018-03-28T15:13:16.463Z,19.87
2018-03-28T15:15:46.566Z,20.08
2018-03-28T15:18:16.637Z,22.45
2018-03-28T15:20:46.009Z,20.10
2018-03-28T15:23:15.370Z,20.27
2018-03-28T15:25:44.797Z,20.60
2018-03-28T15:28:14.146Z,20.97
2018-03-28T15:30:43.483Z,25.02
2018-03-28T15:33:14.315Z,26.33
2018-03-28T15:35:43.705Z,22.47
2018-03-28T15:38:13.866Z,21.30
2018-03-28T15:40:45.006Z,22.67
2018-03-28T15:43:16.307Z,21.67
2018-03-28T15:45:46.616Z,24.40
2018-03-28T15:48:18.040Z,23.80
2018-03-28T15:50:51.368Z,22.20
2018-03-28T15:53:23.711Z,22.27
2018-03-28T15:55:55.199Z,20.63
2018-03-28T15:58:28.889Z,23.83
2018-03-28T16:01:04.727Z,22.30
2018-03-28T16:03:39.297Z,24.50
2018-03-28T16:06:11.603Z,22.08
2018-03-28T16:08:44.458Z,25.17
2018-03-28T16:11:17.330Z,24.60
2018-03-28T16:13:59.846Z,25.03
2018-03-28T16:16:31.041Z,23.55
2018-03-28T16:19:03.002Z,24.93
2018-03-28T16:21:32.813Z,26.50
2018-03-28T16:24:03.780Z,22.17
2018-03-28T16:26:34.870Z,23.10
2018-03-28T16:29:04.243Z,21.03
2018-03-28T16:31:33.594Z,22.73
2018-03-28T16:34:03.205Z,22.50
2018-03-28T16:36:34.401Z,26.37
2018-03-28T16:39:06.093Z,24.60
2018-03-28T16:41:43.059Z,22.43
2018-03-28T16:44:16.553Z,22.97
2018-03-28T16:46:46.362Z,24.00
2018-03-28T16:49:17.043Z,23.07
2018-03-28T16:51:50.078Z,26.10
2018-03-28T16:54:21.978Z,26.97
2018-03-28T16:56:53.387Z,23.63
2018-03-28T16:59:23.424Z,22.27
2018-03-28T17:01:54.872Z,23.65
2018-03-28T17:04:24.224Z,22.70
2018-03-28T17:06:54.140Z,22.87
2018-03-28T17:09:23.515Z,24.35
2018-03-28T17:11:55.220Z,23.67
2018-03-28T17:14:25.583Z,25.75
2018-03-28T17:16:55.879Z,26.47
2018-03-28T17:19:28.993Z,28.67
2018-03-28T17:22:00.000Z,27.17
2018-03-28T17:24:34.107Z,26.10
2018-03-28T17:27:06.965Z,24.85
2018-03-28T17:29:38.999Z,23.90
2018-03-28T17:35:09.610Z,23.98
2018-03-28T17:37:41.409Z,26.97
2018-03-28T17:40:15.265Z,24.00
2018-03-28T17:42:44.863Z,22.47
2018-03-28T17:45:15.417Z,24.10
2018-03-28T17:47:45.464Z,26.43
2018-03-28T17:50:21.089Z,27.23
2018-03-28T17:52:52.249Z,25.23
2018-03-28T17:55:29.581Z,24.00
2018-03-28T17:58:01.055Z,23.40
2018-03-28T18:00:34.282Z,23.13
2018-03-28T18:03:06.653Z,24.80
2018-03-28T18:05:37.480Z,22.92
2018-03-28T18:08:07.478Z,27.93
2018-03-28T18:10:37.832Z,25.43
2018-03-28T18:13:07.623Z,23.67
2018-03-28T18:15:37.059Z,24.07
2018-03-28T18:18:06.443Z,21.45
2018-03-28T18:20:35.833Z,25.43
2018-03-28T18:23:05.266Z,25.20
2018-03-28T18:25:34.707Z,23.97
2018-03-28T18:28:04.632Z,24.80
2018-03-28T18:30:34.608Z,24.30
2018-03-28T18:33:03.931Z,24.70
2018-03-28T18:35:33.324Z,25.17
2018-03-28T18:38:03.758Z,28.10
2018-03-28T18:40:39.056Z,23.77
2018-03-28T18:43:13.675Z,28.60
2018-03-28T18:45:52.195Z,30.20
2018-03-28T18:48:25.251Z,22.97
2018-03-28T18:50:56.801Z,27.17
2018-03-28T18:53:27.727Z,37.83
2018-03-28T18:56:04.432Z,28.83
2018-03-28T18:58:36.436Z,29.08
2018-03-28T19:01:05.991Z,28.90
2018-03-28T19:03:36.280Z,28.73
2018-03-28T19:06:05.644Z,32.23
2018-03-28T19:08:35.205Z,25.57
2018-03-28T19:11:05.696Z,26.80
2018-03-28T19:13:36.316Z,29.60
2018-03-28T19:16:06.673Z,29.55
2018-03-28T19:18:38.763Z,28.83
2018-03-28T19:21:16.227Z,30.43
2018-03-28T19:23:45.794Z,28.27
2018-03-28T19:26:16.570Z,27.47
2018-03-28T19:28:47.119Z,28.53
2018-03-28T19:31:17.162Z,28.27
2018-03-28T19:33:52.003Z,28.33
2018-03-28T19:39:48.618Z,32.13
2018-03-28T19:42:17.946Z,27.33
2018-03-28T19:44:48.113Z,27.75
2018-03-28T19:47:17.482Z,27.43
2018-03-28T19:49:47.800Z,31.57
2018-03-28T19:52:19.616Z,29.50
2018-03-28T19:54:52.742Z,25.57
2018-03-28T19:57:22.630Z,31.70
2018-03-28T19:59:53.388Z,28.30
2018-03-28T20:02:23.771Z,30.73
2018-03-28T20:05:20.592Z,25.30
2018-03-28T20:07:55.142Z,32.83
2018-03-28T20:10:27.538Z,26.30
2018-03-28T20:12:59.648Z,30.17
2018-03-28T20:15:30.778Z,30.80
2018-03-28T20:18:05.471Z,30.25
2018-03-28T20:20:39.053Z,37.83
2018-03-28T20:23:09.376Z,32.73
2018-03-28T20:25:43.750Z,31.77
2018-03-28T20:28:18.670Z,31.33
2018-03-28T20:30:48.358Z,32.97
2018-03-28T20:33:19.239Z,27.73
2018-03-28T20:35:48.792Z,33.43
2018-03-28T20:38:19.259Z,35.92
2018-03-28T20:40:49.207Z,33.33
2018-03-28T20:43:20.597Z,30.12
2018-03-28T20:45:50.535Z,34.53
2018-03-28T20:54:32.743Z,34.60
2018-03-28T20:57:08.182Z,32.27
2018-03-28T20:59:40.316Z,30.40
2018-03-28T21:02:10.796Z,29.57
2018-03-28T21:04:40.823Z,30.70
2018-03-28T21:07:10.993Z,34.83
2018-03-28T21:09:41.107Z,32.90
2018-03-28T21:12:11.482Z,30.77
2018-03-28T21:14:41.949Z,33.03
2018-03-28T21:17:12.161Z,28.47
2018-03-28T21:19:41.665Z,30.40
2018-03-28T21:22:11.655Z,32.47
2018-03-28T21:24:45.308Z,30.20
2018-03-28T21:27:16.234Z,29.27
2018-03-28T21:29:48.295Z,30.03
2018-03-28T21:32:18.629Z,28.73
2018-03-28T21:34:50.795Z,31.30
2018-03-28T21:37:21.931Z,29.40
2018-03-28T21:39:53.238Z,31.87
2018-03-28T21:42:25.513Z,35.70
2018-03-28T21:44:57.758Z,34.37
2018-03-28T21:47:27.684Z,30.60
2018-03-28T21:49:58.843Z,34.30
2018-03-28T21:52:32.910Z,35.58
2018-03-28T21:55:03.163Z,35.85
2018-03-28T21:57:32.484Z,38.00
2018-03-28T22:00:01.869Z,40.37
2018-03-28T22:02:32.879Z,30.77
2018-03-28T22:05:02.322Z,38.97
2018-03-28T22:07:33.894Z,31.77
2018-03-28T22:10:04.404Z,31.33
2018-03-28T22:12:35.708Z,31.73
2018-03-28T22:15:06.707Z,35.40
2018-03-28T22:17:38.932Z,32.15
2018-03-28T22:20:09.001Z,35.35
2018-03-28T22:22:38.860Z,32.30
2018-03-28T22:25:09.948Z,31.30
2018-03-28T22:27:46.271Z,31.10
2018-03-28T22:30:18.515Z,34.47
2018-03-28T22:32:48.487Z,31.67
2018-03-28T22:35:21.248Z,29.40
2018-03-28T22:37:52.279Z,34.13
2018-03-28T22:40:22.763Z,38.60
2018-03-28T22:42:53.092Z,33.43
2018-03-28T22:45:23.815Z,33.30
2018-03-28T22:47:54.026Z,31.87
2018-03-28T22:50:26.758Z,28.80
2018-03-28T22:56:17.051Z,31.10
2018-03-28T22:58:46.549Z,32.23
2018-03-28T23:01:16.668Z,30.77
2018-03-28T23:03:46.461Z,28.20
2018-03-28T23:06:16.583Z,34.97
2018-03-28T23:08:45.943Z,34.63
2018-03-28T23:11:18.442Z,31.87
2018-03-28T23:13:51.683Z,32.73
2018-03-28T23:16:26.408Z,29.73
2018-03-28T23:18:58.894Z,29.87
2018-03-28T23:21:31.737Z,28.87
2018-03-28T23:24:04.696Z,25.10
2018-03-28T23:26:35.200Z,25.10
2018-03-28T23:29:06.278Z,26.43
2018-03-28T23:31:37.355Z,34.00
2018-03-28T23:34:06.750Z,30.10
2018-03-28T23:36:36.499Z,31.27
2018-03-28T23:39:06.081Z,25.60
2018-03-28T23:41:35.551Z,26.67
2018-03-28T23:44:04.831Z,27.53
2018-03-28T23:46:34.316Z,27.63
2018-03-28T23:49:04.460Z,28.20
2018-03-28T23:51:34.083Z,26.60
2018-03-28T23:54:03.458Z,26.27
2018-03-28T23:56:32.781Z,31.07
2018-03-28T23:59:02.424Z,28.33
